Time;durP1;ratioP1;P1;durP2;ratioP2;P2;SDS_P1;SDS_P2;PMS_P1;PMS_P2;Temp;Humidity;BMP_temperature;BMP_pressure;BME280_temperature;BME280_humidity;BME280_pressure;Samples;Min_cycle;Max_cycle;Signal;HPM_P1;HPM_P2
2023/03/30 00:02:22;;;;;;;14.15;10.02;;;;;;;1.33;100.00;101359.72;5005586;28;20053;-72
2023/03/30 00:04:49;;;;;;;28.45;10.05;;;;;;;1.28;100.00;101340.50;4998807;28;20126;-73
2023/03/30 00:07:15;;;;;;;15.68;8.82;;;;;;;0.44;100.00;101238.72;5000386;28;20131;-71
2023/03/30 00:09:45;;;;;;;17.52;11.23;;;;;;;1.09;100.00;101379.13;5005808;28;20405;-74
2023/03/30 00:12:12;;;;;;;14.98;9.38;;;;;;;0.60;100.00;101266.28;4988548;28;20151;-73
2023/03/30 00:14:41;;;;;;;13.88;9.77;;;;;;;0.60;100.00;101271.44;4987138;28;20050;-71
2023/03/30 00:17:08;;;;;;;21.27;9.68;;;;;;;0.62;100.00;101273.28;5000239;28;20577;-74
2023/03/30 00:19:36;;;;;;;16.63;11.80;;;;;;;0.84;100.00;101320.94;5007167;28;20402;-73
2023/03/30 00:22:06;;;;;;;20.42;11.00;;;;;;;1.15;100.00;101384.63;5007019;28;20093;-73
2023/03/30 00:24:32;;;;;;;12.93;8.88;;;;;;;1.01;100.00;101378.72;5007503;28;20061;-75
2023/03/30 00:26:58;;;;;;;25.58;10.57;;;;;;;0.77;100.00;101345.56;5005984;28;20045;-74
2023/03/30 00:29:23;;;;;;;14.63;8.27;;;;;;;1.13;100.00;101375.91;5006267;28;20054;-72
2023/03/30 00:31:49;;;;;;;13.60;8.35;;;;;;;0.99;100.00;101362.22;5007285;28;20064;-73
2023/03/30 00:34:15;;;;;;;13.73;6.53;;;;;;;1.16;100.00;101376.94;5006442;28;23219;-72
2023/03/30 00:36:40;;;;;;;11.77;8.20;;;;;;;1.24;100.00;101383.41;5007245;28;20099;-72
2023/03/30 00:39:07;;;;;;;9.32;6.47;;;;;;;1.27;100.00;101386.16;5006719;28;20089;-73
2023/03/30 00:41:33;;;;;;;12.57;7.40;;;;;;;0.52;92.62;101255.53;5006865;28;20049;-73
2023/03/30 00:44:27;;;;;;;9.57;6.03;;;;;;;1.50;87.90;101393.34;5005464;28;20112;-71
2023/03/30 00:46:53;;;;;;;13.95;6.80;;;;;;;0.71;80.81;101238.44;4999540;28;20038;-73
2023/03/30 00:49:20;;;;;;;14.68;7.22;;;;;;;0.76;84.70;101262.81;5005790;28;20129;-71
2023/03/30 00:51:49;;;;;;;8.65;4.97;;;;;;;1.44;77.37;101374.13;5006828;28;20069;-72
2023/03/30 00:54:19;;;;;;;11.02;6.55;;;;;;;1.59;75.19;101386.06;5007289;28;20041;-73
2023/03/30 00:56:45;;;;;;;8.45;5.13;;;;;;;1.21;75.64;101304.81;5005005;28;20497;-72
2023/03/30 00:59:12;;;;;;;9.20;5.20;;;;;;;1.63;78.30;101396.66;5006416;28;20076;-72
2023/03/30 01:01:40;;;;;;;14.43;7.25;;;;;;;1.46;79.29;101382.84;5005030;28;20045;-72
2023/03/30 01:04:08;;;;;;;11.65;7.55;;;;;;;1.35;83.73;101396.03;5006806;28;20046;-73
2023/03/30 01:06:38;;;;;;;9.82;4.88;;;;;;;1.27;78.77;101357.72;5000741;28;20462;-72
2023/03/30 01:09:05;;;;;;;8.30;5.35;;;;;;;1.44;77.22;101389.63;4996221;28;20038;-72
2023/03/30 01:11:31;;;;;;;9.90;5.47;;;;;;;1.26;83.38;101353.38;5005225;28;20097;-73
2023/03/30 01:14:00;;;;;;;10.38;5.28;;;;;;;0.58;80.95;101297.16;5005892;28;20044;-71
2023/03/30 01:17:12;;;;;;;9.68;6.47;;;;;;;1.05;78.85;101362.53;5006609;28;20048;-73
2023/03/30 01:20:11;;;;;;;15.35;7.40;;;;;;;1.20;76.09;101424.53;5000886;28;20136;-73
2023/03/30 01:23:14;;;;;;;13.18;6.07;;;;;;;0.79;77.50;101408.53;5005613;28;20058;-72
2023/03/30 01:26:05;;;;;;;17.08;7.97;;;;;;;1.15;75.98;101419.13;4998586;28;20045;-74
2023/03/30 01:28:59;;;;;;;18.15;7.28;;;;;;;0.96;79.37;101351.72;5010456;28;20054;-73
2023/03/30 01:32:07;;;;;;;15.38;6.63;;;;;;;0.84;75.90;101408.78;5009484;28;20049;-74
2023/03/30 01:34:42;;;;;;;15.73;9.07;;;;;;;0.90;75.85;101416.88;4999832;28;20141;-72
2023/03/30 01:37:37;;;;;;;10.13;5.38;;;;;;;0.99;77.18;101414.78;5009255;28;20065;-73
2023/03/30 01:40:19;;;;;;;15.43;7.32;;;;;;;0.31;74.10;101298.25;4999637;28;20057;-73
2023/03/30 01:42:51;;;;;;;11.82;8.93;;;;;;;0.21;74.48;101260.69;5006329;28;20061;-74
2023/03/30 01:45:22;;;;;;;11.32;6.88;;;;;;;1.14;72.91;101414.72;5010233;28;20048;-73
2023/03/30 01:47:56;;;;;;;12.82;6.95;;;;;;;1.11;71.71;101406.81;5009836;28;20050;-74
2023/03/30 01:50:28;;;;;;;10.55;6.50;;;;;;;0.92;72.29;101381.69;5002402;28;20061;-72
2023/03/30 01:53:07;;;;;;;13.25;7.95;;;;;;;0.61;72.35;101341.25;5011032;28;20221;-72
2023/03/30 01:55:55;;;;;;;15.15;7.32;;;;;;;0.27;73.10;101279.13;4999297;28;20053;-71
2023/03/30 01:58:36;;;;;;;14.98;6.03;;;;;;;0.91;72.48;101397.97;4986700;28;20151;-73
2023/03/30 02:01:05;;;;;;;9.00;6.07;;;;;;;0.27;73.32;101288.56;5006261;28;20153;-72
2023/03/30 02:03:35;;;;;;;11.25;6.88;;;;;;;0.83;71.36;101386.34;4998932;28;20049;-72
2023/03/30 02:06:08;;;;;;;11.60;6.32;;;;;;;0.91;74.57;101403.13;5008286;28;20042;-73
2023/03/30 02:08:35;;;;;;;;;;;;;;;0.95;74.56;101407.69;5010160;28;20058;-72
2023/03/30 02:11:02;;;;;;;8.30;5.35;;;;;;;0.97;76.67;101410.34;5009563;28;19917;-72
2023/03/30 02:13:30;;;;;;;8.57;6.15;;;;;;;0.30;77.18;101291.31;5010261;28;20040;-72
2023/03/30 02:16:03;;;;;;;11.60;6.25;;;;;;;0.68;75.21;101404.47;5009564;28;20041;-73
2023/03/30 02:18:29;;;;;;;12.63;6.22;;;;;;;0.50;78.02;101364.72;5008955;28;20049;-73
2023/03/30 02:20:57;;;;;;;22.52;8.45;;;;;;;0.78;82.36;101416.19;5009517;28;20046;-74
2023/03/30 02:23:29;;;;;;;15.13;6.82;;;;;;;-0.14;81.05;101276.78;5008028;28;20414;-72
2023/03/30 02:25:56;;;;;;;9.52;5.88;;;;;;;0.67;82.39;101438.84;5010406;28;20045;-75
2023/03/30 02:28:21;;;;;;;12.35;7.75;;;;;;;-0.05;77.41;101310.84;5009652;28;20892;-72
2023/03/30 02:30:47;;;;;;;12.43;5.72;;;;;;;-0.01;76.28;101308.53;5008718;28;20066;-71
2023/03/30 02:33:46;;;;;;;12.13;6.43;;;;;;;0.83;81.61;101422.50;5001525;28;20046;-72
2023/03/30 02:36:19;;;;;;;11.43;7.57;;;;;;;0.81;81.30;101425.00;5008020;28;20112;-74
2023/03/30 02:39:04;;;;;;;11.85;6.38;;;;;;;0.77;75.06;101435.97;5005805;28;20042;-73
2023/03/30 02:41:46;;;;;;;11.75;7.15;;;;;;;0.74;75.70;101433.22;5008608;28;20068;-71
2023/03/30 02:44:44;;;;;;;12.07;7.25;;;;;;;0.47;81.73;101431.66;5007149;28;20044;-73
2023/03/30 02:47:40;;;;;;;12.80;6.10;;;;;;;0.46;85.75;101425.59;5008939;28;20030;-74
2023/03/30 02:50:21;;;;;;;11.25;7.07;;;;;;;0.48;83.28;101439.50;5008713;28;20033;-73
2023/03/30 02:53:05;;;;;;;16.42;7.63;;;;;;;0.47;82.71;101426.47;5008727;28;20552;-73
2023/03/30 02:56:10;;;;;;;12.38;7.55;;;;;;;0.57;92.66;101426.22;5005802;28;20108;-72
2023/03/30 02:58:41;;;;;;;22.55;9.07;;;;;;;0.47;91.00;101429.06;5021855;28;20061;-71
2023/03/30 03:01:09;;;;;;;15.75;9.10;;;;;;;0.54;89.33;101439.84;5007997;28;20104;-73
2023/03/30 03:03:42;;;;;;;16.45;8.30;;;;;;;0.57;88.36;101421.94;5008844;28;20065;-72
2023/03/30 03:06:08;;;;;;;;;;;;;;;0.45;85.38;101439.31;5008744;28;20058;-72
2023/03/30 03:08:38;;;;;;;13.10;8.68;;;;;;;0.28;82.35;101422.88;5007862;28;19924;-72
2023/03/30 03:11:05;;;;;;;12.15;7.13;;;;;;;0.49;80.62;101449.03;5008436;28;20041;-72
2023/03/30 03:13:32;;;;;;;11.05;7.05;;;;;;;-0.28;81.44;101304.34;5008830;28;20034;-73
2023/03/30 03:16:00;;;;;;;13.35;6.90;;;;;;;0.36;85.49;101418.13;5008171;28;20144;-72
2023/03/30 03:18:25;;;;;;;10.15;6.88;;;;;;;-0.19;88.13;101309.16;5007773;28;20054;-72
2023/03/30 03:20:50;;;;;;;15.63;6.90;;;;;;;0.60;91.20;101441.88;5007883;28;20057;-73
2023/03/30 03:23:16;;;;;;;11.70;7.07;;;;;;;-0.08;87.04;101331.31;5008457;28;20818;-72
2023/03/30 03:25:41;;;;;;;11.73;7.70;;;;;;;-0.25;88.01;101346.69;5007303;28;20042;-72
2023/03/30 03:28:07;;;;;;;13.82;7.45;;;;;;;-0.34;88.35;101312.63;5008392;28;20057;-72
2023/03/30 03:30:33;;;;;;;12.77;8.25;;;;;;;0.37;89.29;101430.22;5007673;28;20119;-72
2023/03/30 03:32:58;;;;;;;14.48;7.47;;;;;;;0.29;88.87;101441.81;5007731;28;20046;-72
2023/03/30 03:35:24;;;;;;;15.13;7.32;;;;;;;-0.30;94.68;101319.75;5006942;28;20490;-74
2023/03/30 03:37:49;;;;;;;9.57;6.97;;;;;;;0.39;96.37;101436.38;4998267;28;20078;-73
2023/03/30 03:40:16;;;;;;;13.60;7.78;;;;;;;-0.28;100.00;101319.81;5000725;28;20149;-73
2023/03/30 03:42:42;;;;;;;12.57;8.65;;;;;;;0.34;100.00;101420.63;5007331;28;20088;-73
2023/03/30 03:45:08;;;;;;;22.90;11.93;;;;;;;0.40;99.54;101456.25;5006876;28;21949;-72
2023/03/30 03:47:34;;;;;;;12.10;7.78;;;;;;;-0.01;97.91;101442.69;5007471;28;20058;-72
2023/03/30 03:50:05;;;;;;;12.02;6.47;;;;;;;0.14;100.00;101414.31;5000104;28;20033;-72
2023/03/30 03:52:31;;;;;;;20.13;8.45;;;;;;;0.52;95.13;101461.22;5004416;28;20076;-72
2023/03/30 03:54:57;;;;;;;14.50;8.13;;;;;;;0.51;86.83;101460.31;5000146;28;20105;-72
2023/03/30 03:57:22;;;;;;;17.13;6.47;;;;;;;0.53;90.61;101460.41;4998153;28;20760;-72
2023/03/30 03:59:49;;;;;;;12.55;6.80;;;;;;;-0.13;95.94;101355.97;5006923;28;20081;-72
2023/03/30 04:02:15;;;;;;;20.38;10.40;;;;;;;0.52;91.15;101476.72;4993299;28;20372;-72
2023/03/30 04:04:40;;;;;;;11.65;5.70;;;;;;;0.52;88.37;101487.03;4999801;28;20038;-71
2023/03/30 04:07:06;;;;;;;11.93;8.70;;;;;;;0.52;85.33;101487.03;4998344;28;20034;-74
2023/03/30 04:09:31;;;;;;;12.73;7.32;;;;;;;-0.33;95.11;101342.78;5006691;28;20122;-74
2023/03/30 04:11:57;;;;;;;11.45;7.40;;;;;;;-0.27;91.60;101368.94;5006436;28;20418;-72
2023/03/30 04:14:22;;;;;;;11.70;6.90;;;;;;;-0.36;89.99;101354.59;5007058;28;20046;-74
2023/03/30 04:16:50;;;;;;;14.27;5.20;;;;;;;0.38;92.08;101463.88;5007675;28;20061;-73
2023/03/30 04:19:16;;;;;;;15.48;8.55;;;;;;;0.45;95.87;101497.81;5006678;28;20068;-73
2023/03/30 04:21:45;;;;;;;15.63;7.32;;;;;;;-0.22;89.81;101384.66;5007502;28;20037;-71
2023/03/30 04:24:13;;;;;;;11.40;6.63;;;;;;;0.34;88.29;101468.78;5006992;28;20038;-71
2023/03/30 04:26:40;;;;;;;12.30;6.43;;;;;;;-0.39;86.85;101336.38;5006807;28;20779;-71
2023/03/30 04:29:06;;;;;;;14.23;7.63;;;;;;;0.55;83.51;101518.19;5006660;28;20486;-71
2023/03/30 04:31:33;;;;;;;19.20;8.23;;;;;;;0.68;80.25;101528.44;5006378;28;20039;-72
2023/03/30 04:34:01;;;;;;;24.13;8.70;;;;;;;0.57;83.79;101495.94;4998485;28;20042;-72
2023/03/30 04:36:27;;;;;;;90.50;13.10;;;;;;;0.73;83.17;101516.69;5006756;28;20060;-72
2023/03/30 04:38:59;;;;;;;22.88;7.97;;;;;;;0.82;78.68;101534.41;5001725;28;20054;-73
2023/03/30 04:41:33;;;;;;;16.08;6.70;;;;;;;-0.04;80.00;101397.78;4999514;28;20502;-75
2023/03/30 04:44:08;;;;;;;33.13;13.73;;;;;;;0.06;78.11;101405.22;4995334;28;20091;-74
2023/03/30 04:46:34;;;;;;;55.10;12.73;;;;;;;0.76;74.22;101513.38;5001167;28;20038;-74
2023/03/30 04:49:00;;;;;;;63.65;15.23;;;;;;;0.74;72.86;101536.53;5005786;28;20123;-72
2023/03/30 04:51:25;;;;;;;18.40;7.65;;;;;;;0.15;69.51;101416.09;5005354;28;20498;-74
2023/03/30 04:53:51;;;;;;;14.35;9.27;;;;;;;0.98;70.53;101542.25;5003971;28;20085;-74
2023/03/30 04:56:16;;;;;;;17.23;8.68;;;;;;;0.82;71.50;101496.53;4994857;28;20093;-74
2023/03/30 04:58:42;;;;;;;19.33;9.32;;;;;;;0.02;69.67;101408.44;4994157;28;20116;-73
2023/03/30 05:01:07;;;;;;;82.97;22.33;;;;;;;0.88;68.66;101510.59;5002655;28;20078;-72
2023/03/30 05:03:33;;;;;;;655.55;169.38;;;;;;;0.49;68.38;101435.19;5007143;28;20050;-72
2023/03/30 05:05:59;;;;;;;144.95;28.08;;;;;;;1.25;66.91;101536.81;5011397;28;20049;-72
2023/03/30 05:08:25;;;;;;;46.58;14.82;;;;;;;1.31;66.77;101533.69;5012672;28;21425;-75
2023/03/30 05:10:51;;;;;;;88.97;22.48;;;;;;;0.57;67.16;101406.44;5013309;28;20463;-72
2023/03/30 05:13:16;;;;;;;177.45;39.65;;;;;;;1.02;67.77;101492.47;5012974;28;20128;-73
2023/03/30 05:15:42;;;;;;;59.40;19.10;;;;;;;1.47;66.69;101533.72;5012772;28;20060;-75
2023/03/30 05:18:09;;;;;;;29.00;14.27;;;;;;;1.47;67.37;101515.63;5007326;28;20414;-74
2023/03/30 05:20:34;;;;;;;141.70;30.23;;;;;;;0.98;64.33;101425.97;4997479;28;20042;-76
2023/03/30 05:23:00;;;;;;;76.35;16.83;;;;;;;1.75;64.32;101510.22;5012837;28;20375;-73
2023/03/30 05:25:26;;;;;;;78.35;20.42;;;;;;;1.92;63.09;101529.25;5012599;28;20029;-73
2023/03/30 05:27:51;;;;;;;39.58;11.82;;;;;;;1.43;61.72;101384.41;5012644;28;20037;-72
2023/03/30 05:30:17;;;;;;;24.98;11.38;;;;;;;3.25;59.01;101508.25;5011646;28;20134;-75
2023/03/30 05:32:42;;;;;;;30.13;11.88;;;;;;;4.02;54.80;101364.63;5001736;28;20140;-73
2023/03/30 05:35:08;;;;;;;61.20;14.50;;;;;;;5.25;51.67;101495.25;5011467;28;20026;-73
2023/03/30 05:37:33;;;;;;;447.30;84.22;;;;;;;6.21;49.74;101501.44;5007907;28;20145;-72
2023/03/30 05:39:59;;;;;;;33.42;14.27;;;;;;;6.22;48.94;101381.56;5012404;28;20042;-73
2023/03/30 05:42:25;;;;;;;582.22;116.53;;;;;;;6.48;46.86;101392.84;5012046;28;20169;-74
2023/03/30 05:44:50;;;;;;;17.23;10.50;;;;;;;7.74;46.15;101508.06;5009871;28;20085;-75
2023/03/30 05:47:16;;;;;;;24.27;9.20;;;;;;;7.33;44.14;101511.22;5003748;28;20725;-74
2023/03/30 05:49:42;;;;;;;107.75;24.73;;;;;;;7.48;44.05;101408.06;5002564;28;20041;-72
2023/03/30 05:52:08;;;;;;;26.75;10.32;;;;;;;7.85;42.75;101517.13;5007111;28;20056;-72
2023/03/30 05:54:33;;;;;;;23.75;10.45;;;;;;;7.37;44.06;101515.72;5003063;28;20405;-73
2023/03/30 05:56:59;;;;;;;24.05;10.90;;;;;;;8.77;41.84;101518.75;5008969;28;20052;-72
2023/03/30 05:59:25;;;;;;;25.02;11.18;;;;;;;9.07;41.60;101514.25;5009193;28;20049;-74
2023/03/30 06:01:50;;;;;;;33.38;10.27;;;;;;;8.38;40.52;101397.44;5011112;28;20030;-73
2023/03/30 06:04:16;;;;;;;175.55;32.17;;;;;;;8.74;40.30;101479.44;4998789;28;20038;-72
2023/03/30 06:06:42;;;;;;;67.63;19.98;;;;;;;7.31;41.88;101418.03;5011133;28;20494;-71
2023/03/30 06:09:07;;;;;;;167.98;39.28;;;;;;;8.60;40.97;101513.97;5010372;28;20072;-72
2023/03/30 06:11:33;;;;;;;28.50;16.48;;;;;;;8.24;41.91;101509.50;5012050;28;20149;-72
2023/03/30 06:13:59;;;;;;;21.42;15.13;;;;;;;7.64;42.62;101414.63;5009937;28;20037;-72
2023/03/30 06:16:24;;;;;;;31.00;17.58;;;;;;;7.67;42.59;101512.22;5007631;28;20136;-73
2023/03/30 06:18:50;;;;;;;95.20;26.63;;;;;;;8.23;42.28;101533.00;5007872;28;20390;-72
2023/03/30 06:21:16;;;;;;;23.90;15.80;;;;;;;7.45;43.03;101505.50;5008485;28;20038;-73
2023/03/30 06:23:42;;;;;;;21.58;14.45;;;;;;;7.65;43.39;101533.91;5008642;28;20530;-74
2023/03/30 06:26:08;;;;;;;27.02;16.50;;;;;;;7.42;44.40;101523.66;5008735;28;20030;-71
2023/03/30 06:28:34;;;;;;;23.05;15.05;;;;;;;7.21;43.99;101503.03;5009402;28;20038;-72
2023/03/30 06:31:01;;;;;;;25.20;15.27;;;;;;;7.06;44.64;101513.84;5007025;28;20037;-72
2023/03/30 06:33:29;;;;;;;37.63;16.02;;;;;;;7.02;45.74;101543.28;5007341;28;20061;-72
2023/03/30 06:35:54;;;;;;;61.83;18.88;;;;;;;6.75;45.88;101514.56;4996430;28;20689;-73
2023/03/30 06:38:21;;;;;;;52.42;18.52;;;;;;;6.80;46.16;101546.91;4989758;28;20145;-72
2023/03/30 06:40:48;;;;;;;63.13;14.85;;;;;;;5.80;45.34;101436.53;5002994;28;20022;-73
2023/03/30 06:43:24;;;;;;;21.52;12.50;;;;;;;6.76;45.25;101526.75;4998164;28;20062;-71
2023/03/30 06:45:51;;;;;;;23.58;12.23;;;;;;;6.62;44.47;101541.06;4992073;28;20330;-72
2023/03/30 06:48:18;;;;;;;16.90;10.57;;;;;;;6.42;46.04;101515.19;5008305;28;20049;-72
2023/03/30 06:50:48;;;;;;;25.98;12.00;;;;;;;6.02;45.86;101435.63;4987973;28;20057;-72
2023/03/30 06:53:14;;;;;;;21.60;10.63;;;;;;;6.65;46.40;101559.41;4995005;28;20037;-72
2023/03/30 06:55:40;;;;;;;22.88;10.90;;;;;;;6.58;45.93;101554.81;5008728;28;20034;-71
2023/03/30 06:58:06;;;;;;;231.48;28.08;;;;;;;5.51;44.92;101412.06;5004346;28;20044;-73
2023/03/30 07:00:32;;;;;;;28.45;11.18;;;;;;;6.05;45.16;101555.56;4994371;28;20140;-73
2023/03/30 07:02:57;;;;;;;13.55;8.77;;;;;;;5.81;44.50;101455.69;5003135;28;20498;-72
2023/03/30 07:05:23;;;;;;;19.70;13.13;;;;;;;6.31;45.09;101551.31;4997178;28;20515;-72
2023/03/30 07:07:51;;;;;;;25.23;10.23;;;;;;;6.58;45.23;101541.78;5005710;28;20037;-71
2023/03/30 07:10:17;;;;;;;29.80;11.30;;;;;;;6.28;45.60;101499.06;5002544;28;20141;-70
2023/03/30 07:12:43;;;;;;;27.45;9.52;;;;;;;5.93;46.37;101414.44;4992275;28;20050;-71
2023/03/30 07:15:09;;;;;;;22.27;9.48;;;;;;;5.92;45.15;101443.91;5006658;28;20049;-71
2023/03/30 07:17:35;;;;;;;11.52;6.22;;;;;;;6.59;45.48;101541.84;4994105;28;20053;-72
2023/03/30 07:20:02;;;;;;;11.20;8.98;;;;;;;6.55;45.06;101521.72;5004640;28;20034;-71
2023/03/30 07:22:28;;;;;;;16.88;9.13;;;;;;;6.47;45.96;101516.25;5008486;28;20038;-70
2023/03/30 07:24:54;;;;;;;13.88;8.43;;;;;;;5.96;45.25;101396.31;5005258;28;20056;-70
2023/03/30 07:27:20;;;;;;;36.67;8.38;;;;;;;6.37;44.93;101467.25;5006339;28;20046;-70
2023/03/30 07:29:45;;;;;;;24.70;9.10;;;;;;;6.67;44.39;101506.50;5007671;28;20046;-71
2023/03/30 07:32:11;;;;;;;14.52;8.65;;;;;;;5.92;45.06;101415.25;4994887;28;20587;-70
2023/03/30 07:34:36;;;;;;;14.40;6.80;;;;;;;6.41;44.36;101523.84;5003692;28;20026;-71
2023/03/30 07:37:02;;;;;;;11.43;7.22;;;;;;;5.96;43.39;101406.75;5006111;28;20073;-71
2023/03/30 07:39:27;;;;;;;20.33;6.32;;;;;;;6.33;43.07;101539.22;5003709;28;20123;-72
2023/03/30 07:41:53;;;;;;;7.97;5.68;;;;;;;5.70;42.78;101406.69;5007533;28;20410;-72
2023/03/30 07:44:19;;;;;;;12.68;4.15;;;;;;;5.86;44.05;101407.25;5003497;28;20050;-70
2023/03/30 07:46:45;;;;;;;10.63;4.55;;;;;;;6.48;43.33;101524.94;5004607;28;20073;-73
2023/03/30 07:49:11;;;;;;;9.63;6.32;;;;;;;6.59;43.30;101528.81;5006565;28;20472;-73
2023/03/30 07:51:37;;;;;;;16.38;7.65;;;;;;;6.45;42.13;101523.13;5007188;28;20486;-73
2023/03/30 07:54:03;;;;;;;17.30;7.28;;;;;;;5.64;42.19;101387.34;4999763;28;20053;-73
2023/03/30 07:56:32;;;;;;;16.38;5.03;;;;;;;6.59;42.55;101510.56;5002258;28;20498;-72
2023/03/30 07:58:57;;;;;;;37.40;6.78;;;;;;;6.86;43.30;101515.81;5002658;28;20065;-73
2023/03/30 08:01:23;;;;;;;20.33;7.50;;;;;;;6.40;43.04;101411.72;4996789;28;20064;-72
2023/03/30 08:03:49;;;;;;;22.65;7.45;;;;;;;5.89;44.70;101436.88;5006615;28;20049;-73
2023/03/30 08:06:15;;;;;;;11.25;6.20;;;;;;;5.91;42.68;101414.38;5023442;28;20049;-73
2023/03/30 08:08:42;;;;;;;7.32;5.85;;;;;;;6.37;42.55;101461.13;5007014;28;20061;-71
2023/03/30 08:11:09;;;;;;;12.32;6.80;;;;;;;6.32;42.44;101401.00;5011119;28;20049;-72
2023/03/30 08:13:36;;;;;;;7.43;4.88;;;;;;;6.76;43.53;101511.13;5000546;28;20100;-71
2023/03/30 08:16:02;;;;;;;10.95;5.05;;;;;;;6.03;42.05;101393.09;5006796;28;20222;-71
2023/03/30 08:18:27;;;;;;;13.25;7.07;;;;;;;6.53;43.94;101435.63;5006754;28;20536;-74
2023/03/30 08:20:53;;;;;;;15.35;7.13;;;;;;;6.04;41.23;101311.53;5007103;28;20382;-72
2023/03/30 08:23:20;;;;;;;12.00;6.32;;;;;;;6.99;41.98;101477.94;5006627;28;20128;-72
2023/03/30 08:25:50;;;;;;;11.88;5.88;;;;;;;7.01;40.82;101488.44;4995381;28;20112;-71
2023/03/30 08:28:15;;;;;;;31.17;7.45;;;;;;;6.55;43.34;101396.56;5001326;28;20061;-72
2023/03/30 08:30:41;;;;;;;10.70;5.43;;;;;;;7.27;42.85;101504.91;5005375;28;20042;-72
2023/03/30 08:33:08;;;;;;;10.30;5.85;;;;;;;6.50;41.65;101392.91;5006165;28;20812;-72
2023/03/30 08:35:33;;;;;;;9.73;5.80;;;;;;;6.65;41.85;101389.91;5006114;28;20099;-72
2023/03/30 08:37:59;;;;;;;14.45;6.30;;;;;;;6.22;43.45;101405.03;5005975;28;20141;-73
2023/03/30 08:40:25;;;;;;;6.85;5.47;;;;;;;5.66;41.72;101378.75;5005354;28;20559;-73
2023/03/30 08:43:02;;;;;;;25.95;6.93;;;;;;;6.53;43.77;101503.44;5004028;28;20091;-74
2023/03/30 08:45:37;;;;;;;11.88;6.18;;;;;;;6.59;42.46;101427.13;4993671;28;20058;-74
2023/03/30 08:48:07;;;;;;;10.52;5.15;;;;;;;6.55;42.08;101376.59;5001217;28;20050;-72
2023/03/30 08:50:35;;;;;;;24.33;7.78;;;;;;;7.38;41.17;101485.25;4996168;28;20086;-72
2023/03/30 08:53:03;;;;;;;47.70;11.55;;;;;;;7.44;41.38;101487.16;5006585;28;20482;-73
2023/03/30 08:55:47;;;;;;;21.48;7.57;;;;;;;6.89;40.52;101361.09;5007086;28;20034;-73
2023/03/30 08:58:28;;;;;;;19.60;5.65;;;;;;;7.37;42.25;101466.09;5004622;28;20046;-73
2023/03/30 09:01:23;;;;;;;16.02;5.15;;;;;;;6.84;42.31;101467.03;5005829;28;20354;-74
2023/03/30 09:04:06;;;;;;;13.70;5.65;;;;;;;6.80;41.78;101471.25;5002851;28;20046;-73
2023/03/30 09:06:51;;;;;;;16.40;5.45;;;;;;;7.25;41.63;101462.22;5009351;28;20912;-72
2023/03/30 09:09:20;;;;;;;16.48;6.45;;;;;;;7.54;40.21;101452.66;5001042;28;20123;-74
2023/03/30 09:11:51;;;;;;;10.13;6.28;;;;;;;7.85;40.44;101471.81;5003824;28;20053;-74
2023/03/30 09:14:34;;;;;;;11.38;5.70;;;;;;;7.94;39.69;101449.44;4998204;28;20402;-72
2023/03/30 09:17:11;;;;;;;11.18;5.60;;;;;;;7.82;39.92;101465.66;5005682;28;20632;-72
2023/03/30 09:20:11;;;;;;;9.35;5.68;;;;;;;7.67;39.09;101425.16;5004292;28;20065;-76
2023/03/30 09:22:42;;;;;;;8.85;5.65;;;;;;;7.76;39.45;101408.00;5002743;28;20054;-76
2023/03/30 09:25:17;;;;;;;10.38;5.38;;;;;;;7.62;39.24;101388.44;5001509;28;20116;-76
2023/03/30 09:28:02;;;;;;;7.47;4.68;;;;;;;7.60;39.73;101322.22;5002493;28;20046;-75
2023/03/30 09:30:53;;;;;;;6.72;4.80;;;;;;;8.08;39.75;101439.34;5004964;28;20054;-75
2023/03/30 09:33:45;;;;;;;13.35;7.15;;;;;;;8.24;39.71;101407.53;4994790;28;20042;-72
2023/03/30 09:36:16;;;;;;;7.50;4.45;;;;;;;8.50;38.86;101411.66;4994505;28;20531;-72
2023/03/30 09:38:44;;;;;;;33.75;6.63;;;;;;;8.07;38.64;101325.19;4999248;28;20046;-73
2023/03/30 09:41:28;;;;;;;7.85;5.55;;;;;;;8.66;38.42;101419.03;4999761;28;20057;-73
2023/03/30 09:43:57;;;;;;;10.77;5.28;;;;;;;8.55;38.22;101424.03;4990380;28;20042;-73
2023/03/30 09:46:22;;;;;;;14.45;5.97;;;;;;;7.90;37.79;101305.59;4997003;28;20054;-71
2023/03/30 09:48:48;;;;;;;13.02;6.13;;;;;;;8.13;38.47;101306.16;4991763;28;20049;-70
2023/03/30 09:51:27;;;;;;;57.03;9.77;;;;;;;8.14;39.00;101402.91;5002446;28;20046;-72
2023/03/30 09:54:01;;;;;;;27.90;8.52;;;;;;;8.46;38.54;101395.03;4998365;28;20057;-72
2023/03/30 09:56:34;;;;;;;86.57;11.25;;;;;;;7.98;39.00;101276.19;4997111;28;20112;-76
2023/03/30 09:59:27;;;;;;;9.32;5.18;;;;;;;9.07;38.81;101406.03;5000573;28;20472;-72
2023/03/30 10:02:09;;;;;;;12.07;5.63;;;;;;;9.20;36.36;101375.75;5001708;28;20046;-71
2023/03/30 10:04:55;;;;;;;9.20;5.00;;;;;;;8.43;35.85;101287.75;4994994;28;20043;-72
2023/03/30 10:07:51;;;;;;;11.63;4.38;;;;;;;9.32;36.20;101382.97;5006070;28;20108;-72
2023/03/30 10:10:20;;;;;;;37.33;6.22;;;;;;;9.21;36.24;101369.69;5005666;28;20547;-71
2023/03/30 10:12:49;;;;;;;26.33;5.47;;;;;;;8.55;36.99;101254.00;5008251;28;20457;-72
2023/03/30 10:15:22;;;;;;;21.05;8.25;;;;;;;8.70;36.92;101270.88;5005995;28;20143;-73
2023/03/30 10:17:50;;;;;;;14.13;5.43;;;;;;;9.50;36.84;101358.06;5006484;28;20666;-76
2023/03/30 10:20:23;;;;;;;7.90;4.85;;;;;;;8.86;35.04;101246.78;5001806;28;20485;-76
2023/03/30 10:22:51;;;;;;;27.77;9.63;;;;;;;9.51;35.77;101330.13;4996911;28;20662;-74
2023/03/30 10:25:22;;;;;;;13.55;6.15;;;;;;;9.51;36.53;101353.72;4989519;28;20052;-74
2023/03/30 10:27:52;;;;;;;18.15;6.55;;;;;;;9.60;36.53;101346.03;4992211;28;20042;-73
2023/03/30 10:30:22;;;;;;;14.68;4.90;;;;;;;9.14;35.44;101245.59;4996506;28;20050;-77
2023/03/30 10:32:48;;;;;;;8.45;5.82;;;;;;;9.54;36.98;101230.63;5005285;28;20042;-76
2023/03/30 10:35:22;;;;;;;16.17;5.10;;;;;;;10.40;35.06;101315.09;4996722;28;20042;-74
2023/03/30 10:37:52;;;;;;;31.38;7.22;;;;;;;10.26;34.84;101291.22;5003889;28;20106;-74
2023/03/30 10:40:20;;;;;;;9.80;5.32;;;;;;;10.90;35.18;101321.03;4998051;28;20161;-76
2023/03/30 10:42:51;;;;;;;7.40;4.25;;;;;;;11.45;36.58;101336.59;4986288;28;20416;-74
2023/03/30 10:45:27;;;;;;;8.43;4.55;;;;;;;10.72;32.32;101219.31;5002616;28;20499;-76
2023/03/30 10:47:52;;;;;;;5.68;3.53;;;;;;;12.07;33.75;101310.94;5006348;28;20099;-75
2023/03/30 10:50:27;;;;;;;103.93;12.57;;;;;;;12.01;34.57;101312.66;5005789;28;20865;-75
2023/03/30 10:53:02;;;;;;;8.60;5.03;;;;;;;12.17;34.93;101237.34;5005121;28;20096;-75
2023/03/30 10:55:48;;;;;;;9.20;5.78;;;;;;;12.42;33.03;101288.38;4996457;28;20060;-75
2023/03/30 10:58:26;;;;;;;10.35;5.72;;;;;;;12.37;32.43;101271.69;4998833;28;20081;-73
2023/03/30 11:01:05;;;;;;;28.75;11.30;;;;;;;13.03;33.50;101297.50;5002726;28;20078;-73
2023/03/30 11:03:31;;;;;;;6.43;4.18;;;;;;;12.73;31.88;101180.59;5006224;28;20660;-73
2023/03/30 11:06:21;;;;;;;6.70;4.18;;;;;;;12.75;30.86;101149.88;5005854;28;20057;-73
2023/03/30 11:08:51;;;;;;;8.07;5.18;;;;;;;12.63;31.92;101145.47;4999660;28;20053;-73
2023/03/30 11:11:21;;;;;;;19.17;5.35;;;;;;;12.31;32.59;101154.97;4990917;28;20045;-73
2023/03/30 11:14:12;;;;;;;43.42;9.25;;;;;;;12.74;31.68;101253.47;4997134;28;20160;-75
2023/03/30 11:16:46;;;;;;;11.23;4.55;;;;;;;12.63;31.35;101123.53;5009788;28;20125;-72
2023/03/30 11:19:35;;;;;;;15.40;5.15;;;;;;;13.32;31.89;101228.22;5003780;28;20058;-73
2023/03/30 11:22:26;;;;;;;15.13;5.05;;;;;;;13.86;31.84;101244.94;4994303;28;20552;-71
2023/03/30 11:24:56;;;;;;;14.35;5.15;;;;;;;13.93;32.04;101226.50;4994030;28;20481;-73
2023/03/30 11:27:38;;;;;;;9.50;4.90;;;;;;;12.67;31.29;101141.97;5005829;28;20111;-75
2023/03/30 11:30:27;;;;;;;7.93;4.05;;;;;;;13.11;30.97;101108.69;4995710;28;20521;-73
2023/03/30 11:33:00;;;;;;;10.27;6.22;;;;;;;13.60;31.66;101129.81;5007148;28;20061;-74
2023/03/30 11:35:46;;;;;;;31.73;5.43;;;;;;;13.56;30.94;101214.19;5006532;28;20054;-75
2023/03/30 11:38:18;;;;;;;5.78;3.78;;;;;;;13.86;30.95;101208.91;5007555;28;20057;-71
2023/03/30 11:40:52;;;;;;;9.27;4.35;;;;;;;13.48;32.25;101177.25;4996994;28;20030;-68